createdAt,value
2022-10-15T00:00:53.913Z,0.00
2022-10-15T00:01:53.928Z,0.00
2022-10-15T00:02:53.883Z,0.00
2022-10-15T00:03:53.884Z,0.00
2022-10-15T00:04:53.844Z,0.00
2022-10-15T00:05:53.828Z,0.00
2022-10-15T00:06:53.834Z,0.00
2022-10-15T00:07:53.814Z,0.00
2022-10-15T00:08:53.841Z,0.00
2022-10-15T00:09:53.775Z,0.00
2022-10-15T00:10:53.765Z,0.00
2022-10-15T00:11:53.759Z,0.00
2022-10-15T00:12:53.800Z,0.00
2022-10-15T00:13:53.757Z,0.00
2022-10-15T00:14:53.756Z,0.00
2022-10-15T00:15:53.711Z,0.00
2022-10-15T00:16:53.747Z,0.00
2022-10-15T00:17:53.703Z,0.00
2022-10-15T00:18:53.707Z,0.00
2022-10-15T00:19:53.677Z,0.00
2022-10-15T00:20:53.707Z,0.00
2022-10-15T00:21:53.696Z,0.00
2022-10-15T00:22:53.677Z,0.00
2022-10-15T00:23:53.630Z,0.00
2022-10-15T00:24:53.650Z,0.00
2022-10-15T00:25:53.609Z,0.00
2022-10-15T00:26:53.599Z,0.00
2022-10-15T00:27:53.607Z,0.00
2022-10-15T00:28:53.727Z,0.00
2022-10-15T00:29:53.569Z,0.00
2022-10-15T00:30:53.647Z,0.00
2022-10-15T00:31:53.541Z,0.00
2022-10-15T00:32:53.557Z,0.00
2022-10-15T00:33:53.521Z,0.00
2022-10-15T00:34:53.520Z,0.00
2022-10-15T00:35:53.520Z,0.00
2022-10-15T00:36:53.477Z,0.00
2022-10-15T00:37:53.510Z,0.00
2022-10-15T00:38:53.492Z,0.00
2022-10-15T00:39:53.501Z,0.00
2022-10-15T00:40:53.462Z,0.00
2022-10-15T00:41:53.447Z,0.00
2022-10-15T00:42:53.433Z,0.00
2022-10-15T00:43:53.432Z,0.00
2022-10-15T00:44:53.403Z,0.00
2022-10-15T00:45:53.425Z,0.00
2022-10-15T00:46:53.403Z,0.00
2022-10-15T00:47:53.373Z,0.00
2022-10-15T00:48:53.398Z,0.00
2022-10-15T00:49:53.375Z,0.00
2022-10-15T00:50:53.341Z,0.00
2022-10-15T00:51:53.328Z,0.00
2022-10-15T00:52:53.335Z,0.00
2022-10-15T00:53:53.315Z,0.00
2022-10-15T00:54:53.314Z,0.00
2022-10-15T00:55:53.304Z,0.00
2022-10-15T00:56:53.295Z,0.00
2022-10-15T00:57:53.295Z,0.00
2022-10-15T00:58:53.276Z,0.00
2022-10-15T00:59:53.257Z,0.00
2022-10-15T01:00:53.299Z,0.00
2022-10-15T01:01:53.219Z,0.00
2022-10-15T01:02:53.207Z,0.00
2022-10-15T01:03:53.217Z,0.00
2022-10-15T01:04:53.216Z,0.00
2022-10-15T01:05:53.196Z,0.00
2022-10-15T01:06:53.179Z,0.00
2022-10-15T01:07:53.155Z,0.00
2022-10-15T01:08:53.156Z,0.00
2022-10-15T01:09:53.140Z,0.00
2022-10-15T01:10:53.158Z,0.00
2022-10-15T01:11:53.106Z,0.00
2022-10-15T01:12:53.105Z,0.00
2022-10-15T01:13:53.080Z,0.00
2022-10-15T01:14:53.066Z,0.00
2022-10-15T01:15:53.087Z,0.00
2022-10-15T01:16:53.047Z,0.00
2022-10-15T01:17:53.034Z,0.00
2022-10-15T01:18:53.046Z,0.00
2022-10-15T01:19:53.025Z,0.00
2022-10-15T01:20:53.008Z,0.00
2022-10-15T01:21:53.028Z,0.00
2022-10-15T01:22:52.987Z,0.00
2022-10-15T01:23:52.958Z,0.00
2022-10-15T01:24:52.980Z,0.00
2022-10-15T01:25:52.976Z,0.00
2022-10-15T01:26:52.962Z,0.00
2022-10-15T01:27:52.939Z,0.00
2022-10-15T01:28:53.002Z,0.00
2022-10-15T01:29:52.919Z,0.00
2022-10-15T01:30:52.910Z,0.00
2022-10-15T01:31:52.899Z,0.00
2022-10-15T01:32:52.891Z,0.00
2022-10-15T01:33:52.861Z,0.00
2022-10-15T01:34:52.890Z,0.00
2022-10-15T01:35:52.859Z,0.00
2022-10-15T01:36:52.832Z,0.00
2022-10-15T01:37:52.840Z,0.00
2022-10-15T01:38:53.881Z,0.00
2022-10-15T01:39:52.824Z,0.00
2022-10-15T01:40:52.827Z,0.00
2022-10-15T01:41:52.783Z,0.00
2022-10-15T01:42:52.770Z,0.00
2022-10-15T01:43:52.772Z,0.00
2022-10-15T01:44:52.764Z,0.00
2022-10-15T01:45:52.731Z,0.00
2022-10-15T01:46:52.744Z,0.00
2022-10-15T01:47:52.711Z,0.00
2022-10-15T01:48:52.705Z,0.00
2022-10-15T01:49:52.725Z,0.00
2022-10-15T01:50:52.694Z,0.00
2022-10-15T01:51:52.685Z,0.00
2022-10-15T01:52:52.682Z,0.00
2022-10-15T01:53:52.655Z,0.00
2022-10-15T01:54:52.655Z,0.00
2022-10-15T01:55:52.625Z,0.00
2022-10-15T01:56:52.647Z,0.00
2022-10-15T01:57:52.606Z,0.00
2022-10-15T01:58:52.626Z,0.00
2022-10-15T01:59:52.597Z,0.00
2022-10-15T02:00:52.617Z,0.00
2022-10-15T02:01:53.998Z,0.00
2022-10-15T02:02:52.589Z,0.00
2022-10-15T02:03:52.581Z,0.00
2022-10-15T02:04:52.578Z,0.00
2022-10-15T02:05:52.527Z,0.00
2022-10-15T02:06:52.518Z,0.00
2022-10-15T02:07:52.510Z,0.00
2022-10-15T02:08:52.508Z,0.00
2022-10-15T02:09:52.488Z,0.00
2022-10-15T02:10:52.491Z,0.00
2022-10-15T02:11:52.459Z,0.00
2022-10-15T02:12:52.460Z,0.00
2022-10-15T02:13:52.440Z,0.00
2022-10-15T02:14:52.450Z,0.00
2022-10-15T02:15:52.428Z,0.00
2022-10-15T02:16:52.411Z,0.00
2022-10-15T02:17:52.400Z,0.00
2022-10-15T02:18:52.400Z,0.00
2022-10-15T02:19:52.409Z,0.00
2022-10-15T02:20:52.391Z,0.00
2022-10-15T02:21:52.341Z,0.00
2022-10-15T02:22:52.360Z,0.00
2022-10-15T02:23:52.344Z,0.00
2022-10-15T02:24:55.385Z,0.00
2022-10-15T02:25:52.302Z,0.00
2022-10-15T02:26:52.323Z,0.00
2022-10-15T02:27:52.281Z,0.00
2022-10-15T02:28:52.328Z,0.00
2022-10-15T02:29:52.285Z,0.00
2022-10-15T02:30:52.294Z,0.00
2022-10-15T02:31:52.253Z,0.00
2022-10-15T02:32:52.242Z,0.00
2022-10-15T02:33:52.234Z,0.00
2022-10-15T02:34:52.214Z,0.00
2022-10-15T02:35:52.204Z,0.00
2022-10-15T02:36:52.202Z,0.00
2022-10-15T02:37:52.195Z,0.00
2022-10-15T02:38:52.174Z,0.00
2022-10-15T02:39:52.176Z,0.00
2022-10-15T02:40:52.143Z,0.00
2022-10-15T02:41:52.146Z,0.00
2022-10-15T02:42:52.137Z,0.00
2022-10-15T02:43:52.127Z,0.00
2022-10-15T02:44:52.117Z,0.00
2022-10-15T02:45:52.089Z,0.00
2022-10-15T02:46:52.079Z,0.00
2022-10-15T02:47:52.078Z,0.00
2022-10-15T02:48:52.084Z,0.00
2022-10-15T02:49:52.067Z,0.00
2022-10-15T02:50:52.030Z,0.00
2022-10-15T02:51:52.039Z,0.00
2022-10-15T02:52:52.038Z,0.00
2022-10-15T02:53:52.025Z,0.00
2022-10-15T02:54:52.009Z,0.00
2022-10-15T02:55:52.013Z,0.00
2022-10-15T02:56:52.000Z,0.00
2022-10-15T02:57:51.990Z,0.00
2022-10-15T02:58:51.947Z,0.00
2022-10-15T02:59:51.951Z,0.00
2022-10-15T03:00:51.947Z,0.00
2022-10-15T03:01:51.920Z,0.00
2022-10-15T03:02:51.921Z,0.00
2022-10-15T03:03:51.924Z,0.00
2022-10-15T03:04:51.912Z,0.00
2022-10-15T03:05:51.891Z,0.00
2022-10-15T03:06:51.871Z,0.00
2022-10-15T03:07:51.863Z,0.00
2022-10-15T03:08:51.872Z,0.00
2022-10-15T03:09:51.842Z,0.00
2022-10-15T03:10:51.832Z,0.00
2022-10-15T03:11:51.811Z,0.00
2022-10-15T03:12:51.813Z,0.00
2022-10-15T03:13:51.791Z,0.00
2022-10-15T03:14:51.793Z,0.00
2022-10-15T03:15:51.783Z,0.00
2022-10-15T03:16:51.764Z,0.00
2022-10-15T03:17:51.753Z,0.00
2022-10-15T03:18:51.754Z,0.00
2022-10-15T03:19:51.742Z,0.00
2022-10-15T03:20:51.734Z,0.00
2022-10-15T03:21:51.725Z,0.00
2022-10-15T03:22:51.726Z,0.00
2022-10-15T03:23:51.695Z,0.00
2022-10-15T03:24:51.683Z,0.00
2022-10-15T03:25:51.666Z,0.00
2022-10-15T03:26:51.678Z,0.00
2022-10-15T03:27:51.656Z,0.00
2022-10-15T03:28:51.666Z,0.00
2022-10-15T03:29:51.624Z,0.00
2022-10-15T03:30:51.627Z,0.00
2022-10-15T03:31:51.610Z,0.00
2022-10-15T03:32:51.588Z,0.00
2022-10-15T03:33:51.592Z,0.00
2022-10-15T03:34:51.567Z,0.00
2022-10-15T03:35:51.568Z,0.00
2022-10-15T03:36:51.558Z,0.00
2022-10-15T03:37:51.559Z,0.00
2022-10-15T03:38:51.530Z,0.00
2022-10-15T03:39:51.519Z,0.00
2022-10-15T03:40:51.509Z,0.00
2022-10-15T03:41:51.502Z,0.00
2022-10-15T03:42:51.504Z,0.00
2022-10-15T03:43:51.492Z,0.00
2022-10-15T03:44:51.471Z,0.00
2022-10-15T03:45:51.462Z,0.00
2022-10-15T03:46:51.430Z,0.00
2022-10-15T03:47:51.442Z,0.00
2022-10-15T03:48:51.442Z,0.00
2022-10-15T03:49:51.421Z,0.00
2022-10-15T03:50:51.397Z,0.00
2022-10-15T03:51:51.401Z,0.00
2022-10-15T03:52:51.392Z,0.00
2022-10-15T03:53:51.376Z,0.00
2022-10-15T03:54:51.383Z,0.00
2022-10-15T03:55:51.372Z,0.00
2022-10-15T03:56:51.342Z,0.00
2022-10-15T03:57:51.373Z,0.00
2022-10-15T03:58:51.308Z,0.00
2022-10-15T03:59:51.314Z,0.00
2022-10-15T04:00:51.338Z,0.00
2022-10-15T04:01:51.284Z,0.00
2022-10-15T04:02:51.288Z,0.00
2022-10-15T04:03:51.254Z,0.00
2022-10-15T04:04:51.234Z,0.00
2022-10-15T04:05:53.848Z,0.00
2022-10-15T04:06:51.225Z,0.00
2022-10-15T04:07:51.234Z,0.00
2022-10-15T04:09:51.187Z,0.00
2022-10-15T04:10:51.186Z,0.00
2022-10-15T04:11:51.175Z,0.00
2022-10-15T04:12:51.153Z,0.00
2022-10-15T04:13:51.171Z,0.00
2022-10-15T04:14:51.146Z,0.00
2022-10-15T04:15:51.125Z,0.00
2022-10-15T04:16:51.106Z,0.00
2022-10-15T04:17:54.218Z,0.00
2022-10-15T04:18:51.086Z,0.00
2022-10-15T04:19:51.078Z,0.00
2022-10-15T04:20:51.066Z,0.00
2022-10-15T04:21:51.076Z,0.00
2022-10-15T04:22:51.079Z,0.00
2022-10-15T04:23:51.049Z,0.00
2022-10-15T04:24:51.040Z,0.00
2022-10-15T04:25:51.010Z,0.00
2022-10-15T04:26:51.010Z,0.00
2022-10-15T04:27:51.010Z,0.00
2022-10-15T04:28:51.039Z,0.00
2022-10-15T04:29:50.979Z,0.00
2022-10-15T04:30:50.970Z,0.00
2022-10-15T04:31:50.972Z,0.00
2022-10-15T04:32:50.942Z,0.00
2022-10-15T04:33:50.943Z,0.00
2022-10-15T04:34:50.952Z,0.00
2022-10-15T04:35:50.912Z,0.00
2022-10-15T04:36:50.921Z,0.00
2022-10-15T04:37:50.889Z,0.00
2022-10-15T04:38:50.891Z,0.00
2022-10-15T04:39:50.883Z,0.00
2022-10-15T04:40:50.872Z,0.00
2022-10-15T04:41:50.862Z,0.00
2022-10-15T04:42:50.850Z,0.00
2022-10-15T04:43:50.844Z,0.00
2022-10-15T04:44:50.812Z,0.00
2022-10-15T04:45:50.816Z,0.00
2022-10-15T04:46:50.804Z,0.00
2022-10-15T04:47:50.803Z,0.00
2022-10-15T04:48:50.765Z,0.00
2022-10-15T04:49:50.775Z,0.00
2022-10-15T04:50:50.753Z,0.00
2022-10-15T04:51:50.745Z,0.00
2022-10-15T04:52:50.736Z,0.00
2022-10-15T04:53:50.734Z,0.00
2022-10-15T04:54:50.713Z,0.00
2022-10-15T04:55:50.707Z,0.00
2022-10-15T04:56:50.697Z,0.00
2022-10-15T04:57:50.676Z,0.00
2022-10-15T04:58:50.658Z,0.00
2022-10-15T04:59:53.906Z,0.00
2022-10-15T05:00:51.643Z,0.00
2022-10-15T05:01:50.679Z,0.00
2022-10-15T05:02:50.638Z,0.00
2022-10-15T05:03:50.608Z,0.00
2022-10-15T05:04:50.608Z,0.00
2022-10-15T05:05:50.589Z,0.00
2022-10-15T05:06:50.580Z,0.00
2022-10-15T05:07:50.585Z,0.00
2022-10-15T05:08:50.568Z,0.00
2022-10-15T05:09:50.571Z,0.00
2022-10-15T05:10:50.540Z,0.00
2022-10-15T05:11:50.531Z,0.00
2022-10-15T05:12:54.109Z,0.00
2022-10-15T05:13:51.513Z,0.00
2022-10-15T05:14:50.505Z,0.00
2022-10-15T05:15:50.501Z,0.00
2022-10-15T05:16:50.480Z,0.00
2022-10-15T05:17:50.503Z,0.00
2022-10-15T05:18:50.452Z,0.00
2022-10-15T05:19:50.440Z,0.00
2022-10-15T05:20:50.423Z,0.00
2022-10-15T05:21:50.454Z,0.00
2022-10-15T05:22:50.412Z,0.00
2022-10-15T05:23:50.413Z,4.00
2022-10-15T05:24:50.382Z,4.00
2022-10-15T05:25:53.207Z,0.00
2022-10-15T05:26:50.374Z,4.00
2022-10-15T05:27:50.373Z,4.00
2022-10-15T05:28:50.432Z,8.00
2022-10-15T05:29:50.332Z,4.00
2022-10-15T05:30:50.336Z,8.00
2022-10-15T05:31:50.325Z,8.00
2022-10-15T05:32:50.315Z,8.00
2022-10-15T05:33:50.285Z,8.00
2022-10-15T05:34:50.275Z,12.00
2022-10-15T05:35:50.284Z,16.00
2022-10-15T05:36:50.274Z,20.00
2022-10-15T05:37:50.276Z,24.00
2022-10-15T05:38:50.235Z,24.00
2022-10-15T05:39:50.256Z,28.00
2022-10-15T05:40:50.250Z,36.00
2022-10-15T05:41:50.227Z,40.00
2022-10-15T05:42:50.224Z,44.00
2022-10-15T05:43:50.179Z,48.00
2022-10-15T05:44:50.184Z,56.00
2022-10-15T05:45:50.179Z,60.00
2022-10-15T05:46:50.180Z,60.00
2022-10-15T05:47:50.140Z,60.00
2022-10-15T05:48:50.141Z,68.00
2022-10-15T05:49:50.139Z,76.00
2022-10-15T05:50:50.119Z,80.00
2022-10-15T05:51:50.163Z,88.00
2022-10-15T05:52:50.104Z,88.00
2022-10-15T05:53:50.080Z,88.00
2022-10-15T05:54:50.080Z,88.00
2022-10-15T05:55:50.080Z,92.00
2022-10-15T05:56:50.051Z,92.00
2022-10-15T05:57:50.049Z,88.00
2022-10-15T05:58:50.049Z,84.00
2022-10-15T05:59:50.025Z,96.00
2022-10-15T06:00:50.021Z,104.00
2022-10-15T06:01:50.037Z,120.00
2022-10-15T06:02:50.163Z,148.00
2022-10-15T06:03:49.973Z,164.00
2022-10-15T06:04:49.962Z,176.00
2022-10-15T06:05:49.961Z,188.00
2022-10-15T06:06:49.981Z,192.00
2022-10-15T06:07:49.923Z,188.00
2022-10-15T06:08:49.906Z,188.00
2022-10-15T06:09:49.914Z,188.00
2022-10-15T06:10:49.893Z,208.00
2022-10-15T06:11:49.886Z,224.00
2022-10-15T06:12:49.864Z,260.00
2022-10-15T06:13:49.862Z,340.00
2022-10-15T06:14:49.844Z,404.00
2022-10-15T06:15:49.856Z,380.00
2022-10-15T06:16:49.836Z,344.00
2022-10-15T06:17:49.823Z,324.00
2022-10-15T06:18:49.814Z,308.00
2022-10-15T06:19:49.804Z,288.00
2022-10-15T06:20:49.786Z,280.00
2022-10-15T06:21:49.787Z,272.00
2022-10-15T06:22:49.765Z,264.00
2022-10-15T06:23:49.777Z,264.00
2022-10-15T06:24:49.757Z,280.00
2022-10-15T06:25:49.737Z,308.00
2022-10-15T06:26:49.718Z,348.00
2022-10-15T06:27:49.718Z,380.00
2022-10-15T06:28:49.786Z,416.00
2022-10-15T06:29:49.687Z,432.00
2022-10-15T06:30:49.698Z,428.00
2022-10-15T06:31:49.668Z,428.00
2022-10-15T06:32:49.655Z,444.00
2022-10-15T06:33:49.649Z,468.00
2022-10-15T06:34:49.940Z,500.00
2022-10-15T06:35:49.649Z,528.00
2022-10-15T06:36:49.609Z,528.00
2022-10-15T06:37:49.612Z,500.00
2022-10-15T06:38:49.612Z,472.00
2022-10-15T06:39:49.590Z,472.00
2022-10-15T06:40:49.582Z,524.00
2022-10-15T06:41:49.581Z,572.00
2022-10-15T06:42:49.562Z,548.00
2022-10-15T06:43:49.588Z,500.00
2022-10-15T06:44:49.541Z,496.00
2022-10-15T06:45:49.541Z,476.00
2022-10-15T06:46:49.503Z,508.00
2022-10-15T06:47:49.522Z,600.00
2022-10-15T06:48:49.502Z,696.00
2022-10-15T06:49:49.473Z,764.00
2022-10-15T06:50:49.462Z,804.00
2022-10-15T06:51:49.488Z,808.00
2022-10-15T06:52:49.522Z,760.00
2022-10-15T06:53:49.423Z,768.00
2022-10-15T06:54:49.424Z,800.00
2022-10-15T06:55:49.417Z,844.00
2022-10-15T06:56:49.425Z,856.00
2022-10-15T06:57:49.395Z,904.00
2022-10-15T06:58:49.384Z,928.00
2022-10-15T06:59:49.366Z,976.00
2022-10-15T07:00:49.366Z,1064.00
2022-10-15T07:01:49.346Z,1208.00
2022-10-15T07:02:49.345Z,1324.00
2022-10-15T07:03:49.336Z,1328.00
2022-10-15T07:04:49.346Z,1300.00
2022-10-15T07:05:49.305Z,1116.00
2022-10-15T07:06:49.306Z,960.00
2022-10-15T07:07:49.295Z,860.00
2022-10-15T07:08:49.286Z,812.00
2022-10-15T07:09:49.288Z,796.00
2022-10-15T07:10:49.258Z,804.00
2022-10-15T07:11:49.264Z,820.00
2022-10-15T07:12:49.258Z,820.00
2022-10-15T07:13:49.219Z,796.00
2022-10-15T07:14:49.230Z,792.00
2022-10-15T07:15:49.228Z,792.00
2022-10-15T07:16:49.189Z,804.00
2022-10-15T07:17:49.194Z,840.00
2022-10-15T07:18:49.199Z,892.00
2022-10-15T07:19:49.170Z,952.00
2022-10-15T07:20:49.190Z,1016.00
2022-10-15T07:21:49.169Z,1112.00
2022-10-15T07:22:49.140Z,1256.00
2022-10-15T07:23:49.120Z,1308.00
2022-10-15T07:24:49.111Z,1320.00
2022-10-15T07:25:49.091Z,1336.00
2022-10-15T07:26:49.118Z,1384.00
2022-10-15T07:27:49.072Z,1476.00
2022-10-15T07:28:49.153Z,1612.00
2022-10-15T07:29:49.063Z,1772.00
2022-10-15T07:30:49.067Z,1916.00
2022-10-15T07:31:49.031Z,2080.00
2022-10-15T07:32:50.299Z,2228.00
2022-10-15T07:33:49.040Z,2376.00
2022-10-15T07:34:49.002Z,2492.00
2022-10-15T07:35:49.008Z,2604.00
2022-10-15T07:36:48.995Z,2708.00
2022-10-15T07:37:48.963Z,2768.00
2022-10-15T07:38:49.223Z,2868.00
2022-10-15T07:39:48.954Z,2908.00
2022-10-15T07:40:48.949Z,2896.00
2022-10-15T07:41:48.936Z,2908.00
2022-10-15T07:42:48.945Z,2948.00
2022-10-15T07:43:48.925Z,2900.00
2022-10-15T07:44:48.908Z,2792.00
2022-10-15T07:45:48.876Z,2656.00
2022-10-15T07:46:48.915Z,2628.00
2022-10-15T07:47:48.866Z,2648.00
2022-10-15T07:48:48.859Z,2664.00
2022-10-15T07:49:48.836Z,2588.00
2022-10-15T07:50:48.838Z,2512.00
2022-10-15T07:51:48.828Z,2432.00
2022-10-15T07:52:48.816Z,2328.00
2022-10-15T07:53:48.808Z,2232.00
2022-10-15T07:54:48.789Z,2144.00
2022-10-15T07:55:48.788Z,2016.00
2022-10-15T07:56:48.790Z,1928.00
2022-10-15T07:57:48.771Z,1936.00
2022-10-15T07:58:48.766Z,2004.00
2022-10-15T07:59:48.730Z,2096.00
2022-10-15T08:00:48.737Z,2136.00
2022-10-15T08:01:50.659Z,2136.00
2022-10-15T08:02:48.728Z,2052.00
2022-10-15T08:03:48.698Z,1892.00
2022-10-15T08:04:48.690Z,1724.00
2022-10-15T08:05:48.701Z,1560.00
2022-10-15T08:06:48.680Z,1480.00
2022-10-15T08:07:48.651Z,1440.00
2022-10-15T08:08:48.643Z,1404.00
2022-10-15T08:09:48.638Z,1408.00
2022-10-15T08:10:48.646Z,1464.00
2022-10-15T08:11:48.613Z,1524.00
2022-10-15T08:12:48.629Z,1612.00
2022-10-15T08:13:48.603Z,1676.00
2022-10-15T08:14:48.601Z,1724.00
2022-10-15T08:15:48.564Z,1788.00
2022-10-15T08:16:48.561Z,1812.00
2022-10-15T08:17:48.551Z,1828.00
2022-10-15T08:18:48.632Z,1884.00
2022-10-15T08:19:48.514Z,1976.00
2022-10-15T08:20:48.525Z,2100.00
2022-10-15T08:21:48.496Z,2268.00
2022-10-15T08:22:48.496Z,2380.00
2022-10-15T08:23:48.522Z,2428.00
2022-10-15T08:24:48.494Z,2640.00
2022-10-15T08:25:48.454Z,3036.00
2022-10-15T08:26:48.446Z,3412.00
2022-10-15T08:27:48.436Z,3584.00
2022-10-15T08:28:48.508Z,3484.00
2022-10-15T08:29:48.417Z,3380.00
2022-10-15T08:30:48.408Z,3340.00
2022-10-15T08:31:48.428Z,3348.00
2022-10-15T08:32:48.398Z,3352.00
2022-10-15T08:33:48.387Z,3544.00
2022-10-15T08:34:48.380Z,3824.00
2022-10-15T08:35:48.366Z,3972.00
2022-10-15T08:36:48.378Z,3756.00
2022-10-15T08:37:48.338Z,3516.00
2022-10-15T08:38:48.329Z,3720.00
2022-10-15T08:39:48.318Z,3956.00
2022-10-15T08:40:48.298Z,3892.00
2022-10-15T08:41:48.320Z,3400.00
2022-10-15T08:42:48.299Z,2812.00
2022-10-15T08:43:48.291Z,2880.00
2022-10-15T08:44:48.262Z,3040.00
2022-10-15T08:45:48.253Z,3136.00
2022-10-15T08:46:48.262Z,3116.00
2022-10-15T08:47:48.220Z,2828.00
2022-10-15T08:48:48.212Z,2620.00
2022-10-15T08:49:48.231Z,2260.00
2022-10-15T08:50:50.427Z,1844.00
2022-10-15T08:51:49.172Z,1700.00
2022-10-15T08:52:48.162Z,1652.00
2022-10-15T08:53:48.190Z,1612.00
2022-10-15T08:54:48.163Z,1576.00
2022-10-15T08:55:48.143Z,1600.00
2022-10-15T08:56:48.132Z,1584.00
2022-10-15T08:57:48.106Z,1736.00
2022-10-15T08:58:48.125Z,1808.00
2022-10-15T08:59:48.085Z,1820.00
2022-10-15T09:00:48.104Z,1788.00
2022-10-15T09:01:48.094Z,1876.00
2022-10-15T09:02:48.124Z,2180.00
2022-10-15T09:03:48.067Z,2088.00
2022-10-15T09:04:48.085Z,1964.00
2022-10-15T09:05:48.035Z,2004.00
2022-10-15T09:06:48.027Z,1816.00
2022-10-15T09:07:50.875Z,1648.00
2022-10-15T09:08:48.995Z,1468.00
2022-10-15T09:09:47.978Z,1412.00
2022-10-15T09:10:48.009Z,1436.00
2022-10-15T09:11:47.957Z,1440.00
2022-10-15T09:12:47.988Z,1352.00
2022-10-15T09:13:47.946Z,1364.00
2022-10-15T09:14:47.947Z,1756.00
2022-10-15T09:15:47.927Z,1868.00
2022-10-15T09:16:47.919Z,1732.00
2022-10-15T09:17:47.889Z,1772.00
2022-10-15T09:18:47.931Z,1548.00
2022-10-15T09:19:47.899Z,1588.00
2022-10-15T09:20:47.870Z,1744.00
2022-10-15T09:21:47.854Z,1896.00
2022-10-15T09:23:47.870Z,2228.00
2022-10-15T09:24:47.851Z,2428.00
2022-10-15T09:25:47.821Z,2300.00
2022-10-15T09:26:48.105Z,1784.00
2022-10-15T09:27:47.781Z,1488.00
2022-10-15T09:28:47.855Z,1500.00
2022-10-15T09:29:47.776Z,1716.00
2022-10-15T09:30:47.770Z,2012.00
2022-10-15T09:31:47.827Z,2228.00
2022-10-15T09:32:50.623Z,2396.00
2022-10-15T09:33:48.741Z,2268.00
2022-10-15T09:34:47.738Z,2076.00
2022-10-15T09:35:47.722Z,2140.00
2022-10-15T09:36:47.693Z,2568.00
2022-10-15T09:37:47.683Z,3272.00
2022-10-15T09:38:47.685Z,3596.00
2022-10-15T09:39:47.654Z,4104.00
2022-10-15T09:40:47.694Z,4808.00
2022-10-15T09:41:47.645Z,5260.00
2022-10-15T09:42:47.636Z,5132.00
2022-10-15T09:43:47.648Z,5092.00
2022-10-15T09:44:47.617Z,5148.00
2022-10-15T09:45:47.607Z,4652.00
2022-10-15T09:46:47.607Z,4176.00
2022-10-15T09:47:47.617Z,4200.00
2022-10-15T09:48:47.567Z,4520.00
2022-10-15T09:49:47.548Z,5172.00
2022-10-15T09:50:47.567Z,5448.00
2022-10-15T09:51:47.526Z,5084.00
2022-10-15T09:52:47.518Z,5224.00
2022-10-15T09:53:47.548Z,5300.00
2022-10-15T09:54:47.500Z,5632.00
2022-10-15T09:55:47.479Z,6256.00
2022-10-15T09:56:47.478Z,6576.00
2022-10-15T09:57:47.469Z,7060.00
2022-10-15T09:58:47.480Z,7584.00
2022-10-15T09:59:47.450Z,8692.00
2022-10-15T10:00:47.480Z,8540.00
2022-10-15T10:01:47.439Z,8516.00
2022-10-15T10:02:47.434Z,7088.00
2022-10-15T10:03:47.420Z,5904.00
2022-10-15T10:04:47.401Z,5212.00
2022-10-15T10:05:47.391Z,4668.00
2022-10-15T10:06:47.409Z,4116.00
2022-10-15T10:07:47.352Z,5088.00
2022-10-15T10:09:47.351Z,6104.00
2022-10-15T10:10:47.353Z,5696.00
2022-10-15T10:11:47.323Z,5648.00
2022-10-15T10:12:47.303Z,4892.00
2022-10-15T10:13:47.294Z,5912.00
2022-10-15T10:14:47.283Z,7028.00
2022-10-15T10:15:47.290Z,6360.00
2022-10-15T10:16:47.295Z,5796.00
2022-10-15T10:17:47.287Z,4192.00
2022-10-15T10:18:47.236Z,3776.00
2022-10-15T10:19:47.225Z,3872.00
2022-10-15T10:20:47.222Z,4712.00
2022-10-15T10:21:47.236Z,5020.00
2022-10-15T10:22:50.434Z,5020.00
2022-10-15T10:23:47.205Z,5088.00
2022-10-15T10:24:47.180Z,5096.00
2022-10-15T10:25:47.197Z,4832.00
2022-10-15T10:26:47.174Z,5388.00
2022-10-15T10:27:47.137Z,7808.00
2022-10-15T10:28:47.221Z,8708.00
2022-10-15T10:29:47.193Z,9956.00
2022-10-15T10:30:47.108Z,10120.00
2022-10-15T10:31:47.120Z,7676.00
2022-10-15T10:32:47.110Z,7412.00
2022-10-15T10:33:47.099Z,7116.00
2022-10-15T10:34:52.274Z,5248.00
2022-10-15T10:35:48.068Z,4304.00
2022-10-15T10:36:47.091Z,4592.00
2022-10-15T10:37:47.049Z,5916.00
2022-10-15T10:38:47.048Z,7508.00
2022-10-15T10:39:47.029Z,7224.00
2022-10-15T10:40:47.020Z,4356.00
2022-10-15T10:41:47.010Z,4072.00
2022-10-15T10:42:47.002Z,4044.00
2022-10-15T10:43:47.000Z,5172.00
2022-10-15T10:44:46.980Z,5364.00
2022-10-15T10:45:50.065Z,5708.00
2022-10-15T10:46:46.953Z,5444.00
2022-10-15T10:47:46.923Z,6624.00
2022-10-15T10:48:46.953Z,6172.00
2022-10-15T10:49:46.915Z,6068.00
2022-10-15T10:50:46.914Z,7224.00
2022-10-15T10:51:46.905Z,8580.00
2022-10-15T10:52:46.875Z,10224.00
2022-10-15T10:53:46.886Z,9524.00
2022-10-15T10:54:46.866Z,9420.00
2022-10-15T10:55:46.835Z,8236.00
2022-10-15T10:56:46.857Z,7612.00
2022-10-15T10:57:46.823Z,7628.00
2022-10-15T10:58:46.846Z,6840.00
2022-10-15T10:59:46.814Z,6076.00
2022-10-15T11:00:46.849Z,6524.00
2022-10-15T11:01:46.776Z,6512.00
2022-10-15T11:02:47.317Z,5972.00
2022-10-15T11:03:47.077Z,6148.00
2022-10-15T11:04:46.748Z,7224.00
2022-10-15T11:05:46.755Z,6560.00
2022-10-15T11:06:46.749Z,7616.00
2022-10-15T11:07:46.720Z,9380.00
2022-10-15T11:08:46.706Z,9044.00
2022-10-15T11:09:46.732Z,6760.00
2022-10-15T11:10:46.690Z,7284.00
2022-10-15T11:11:46.687Z,9812.00
2022-10-15T11:12:46.672Z,10508.00
2022-10-15T11:13:46.660Z,10796.00
2022-10-15T11:14:46.671Z,10764.00
2022-10-15T11:15:46.645Z,11092.00
2022-10-15T11:16:46.631Z,11468.00
2022-10-15T11:17:46.631Z,12212.00
2022-10-15T11:18:46.612Z,11856.00
2022-10-15T11:20:57.721Z,12324.00
2022-10-15T11:21:47.564Z,11156.00
2022-10-15T11:22:46.574Z,10296.00
2022-10-15T11:23:46.570Z,10320.00
2022-10-15T11:24:49.084Z,8772.00
2022-10-15T11:25:46.526Z,6220.00
2022-10-15T11:26:59.168Z,6976.00
2022-10-15T11:27:47.544Z,8216.00
2022-10-15T11:28:46.584Z,11268.00
2022-10-15T11:29:46.517Z,12736.00
2022-10-15T11:30:46.507Z,12876.00
2022-10-15T11:32:01.657Z,13304.00
2022-10-15T11:33:06.090Z,14096.00
2022-10-15T11:33:47.445Z,11140.00
2022-10-15T11:34:46.428Z,10660.00
2022-10-15T11:35:53.395Z,9540.00
2022-10-15T11:36:47.418Z,8988.00
2022-10-15T11:37:46.407Z,6952.00
2022-10-15T11:38:46.385Z,7652.00
2022-10-15T11:39:46.380Z,8860.00
2022-10-15T11:40:46.427Z,9388.00
2022-10-15T11:41:46.419Z,8776.00
2022-10-15T11:42:46.351Z,8364.00
2022-10-15T11:43:46.350Z,7272.00
2022-10-15T11:44:46.319Z,7084.00
2022-10-15T11:45:46.311Z,6828.00
2022-10-15T11:46:46.808Z,6720.00
2022-10-15T11:47:46.291Z,6744.00
2022-10-15T11:48:46.352Z,6824.00
2022-10-15T11:49:46.293Z,7400.00
2022-10-15T11:50:46.271Z,8324.00
2022-10-15T11:51:46.263Z,8872.00
2022-10-15T11:52:46.244Z,9052.00
2022-10-15T11:53:46.246Z,9328.00
2022-10-15T11:54:46.214Z,10356.00
2022-10-15T11:55:46.213Z,12752.00
2022-10-15T11:56:46.204Z,11532.00
2022-10-15T11:57:46.193Z,11248.00
2022-10-15T11:58:46.210Z,14608.00
2022-10-15T11:59:46.316Z,22784.00
2022-10-15T12:00:46.168Z,58432.00
2022-10-15T12:01:46.164Z,96384.00
2022-10-15T12:02:46.125Z,84736.00
2022-10-15T12:03:46.164Z,84864.00
2022-10-15T12:04:46.145Z,21536.00
2022-10-15T12:05:46.107Z,13888.00
2022-10-15T12:06:46.098Z,13888.00
2022-10-15T12:07:46.115Z,19456.00
2022-10-15T12:08:46.086Z,17216.00
2022-10-15T12:09:46.068Z,14468.00
2022-10-15T12:10:46.059Z,13264.00
2022-10-15T12:11:46.038Z,12632.00
2022-10-15T12:12:46.043Z,10284.00
2022-10-15T12:13:46.030Z,9648.00
2022-10-15T12:14:46.030Z,7856.00
2022-10-15T12:15:46.001Z,6252.00
2022-10-15T12:16:46.091Z,5404.00
2022-10-15T12:17:45.991Z,6060.00
2022-10-15T12:18:45.971Z,7004.00
2022-10-15T12:19:45.962Z,5972.00
2022-10-15T12:20:45.954Z,5108.00
2022-10-15T12:21:45.943Z,5440.00
2022-10-15T12:22:45.953Z,4960.00
2022-10-15T12:23:45.924Z,5064.00
2022-10-15T12:24:45.894Z,4348.00
2022-10-15T12:25:45.894Z,4204.00
2022-10-15T12:26:45.895Z,4212.00
2022-10-15T12:27:45.875Z,4020.00
2022-10-15T12:28:45.909Z,3372.00
2022-10-15T12:29:45.856Z,3156.00
2022-10-15T12:30:45.845Z,2964.00
2022-10-15T12:31:45.837Z,3096.00
2022-10-15T12:32:45.827Z,3372.00
2022-10-15T12:33:45.835Z,3712.00
2022-10-15T12:34:45.798Z,4032.00
2022-10-15T12:35:45.799Z,4276.00
2022-10-15T12:36:45.778Z,4176.00
2022-10-15T12:37:45.767Z,4196.00
2022-10-15T12:38:45.747Z,4176.00
2022-10-15T12:39:52.560Z,3780.00
2022-10-15T12:40:46.729Z,3328.00
2022-10-15T12:41:45.729Z,3080.00
2022-10-15T12:42:45.700Z,3028.00